Time;durP1;ratioP1;P1;durP2;ratioP2;P2;SDS_P1;SDS_P2;PMS_P1;PMS_P2;Temp;Humidity;BMP_temperature;BMP_pressure;BME280_temperature;BME280_humidity;BME280_pressure;Samples;Min_cycle;Max_cycle;Signal;HPM_P1;HPM_P2
2022/10/10 00:01:25;;;;;;;13.10;10.43;;;13.20;99.90;;;;;;5041339;28;20442;-84
2022/10/10 00:03:52;;;;;;;12.13;9.77;;;13.20;99.90;;;;;;5039656;28;20450;-84
2022/10/10 00:06:20;;;;;;;12.00;10.00;;;13.20;99.90;;;;;;5039315;28;20470;-83
2022/10/10 00:08:49;;;;;;;10.43;8.70;;;13.20;99.90;;;;;;5038752;28;20453;-83
2022/10/10 00:11:18;;;;;;;14.60;10.70;;;13.20;99.90;;;;;;5035354;28;20833;-83
2022/10/10 00:13:46;;;;;;;15.50;10.80;;;13.20;99.90;;;;;;5036364;28;20533;-84
2022/10/10 00:16:14;;;;;;;11.00;9.90;;;13.30;99.90;;;;;;5036194;28;20496;-83
2022/10/10 00:18:41;;;;;;;12.33;9.67;;;13.30;99.90;;;;;;5036719;28;20449;-83
2022/10/10 00:21:09;;;;;;;12.00;10.50;;;13.30;99.90;;;;;;5038954;28;20930;-83
2022/10/10 00:23:36;;;;;;;10.53;8.93;;;13.30;99.90;;;;;;5038523;28;20456;-83
2022/10/10 00:26:05;;;;;;;13.97;10.57;;;13.30;99.90;;;;;;5038763;28;20481;-83
2022/10/10 00:28:31;;;;;;;13.20;10.50;;;13.30;99.90;;;;;;5038228;28;20464;-84
2022/10/10 00:30:58;;;;;;;12.10;10.13;;;13.30;99.90;;;;;;5037833;28;20524;-83
2022/10/10 00:33:25;;;;;;;10.87;9.77;;;13.30;99.90;;;;;;5036328;28;20449;-83
2022/10/10 00:35:52;;;;;;;11.67;9.87;;;13.30;99.90;;;;;;5034924;28;21001;-82
2022/10/10 00:38:19;;;;;;;11.00;9.60;;;13.30;99.90;;;;;;5034938;28;20453;-83
2022/10/10 00:40:47;;;;;;;10.20;9.27;;;13.30;99.90;;;;;;5049746;28;20445;-83
2022/10/10 00:43:18;;;;;;;12.00;10.67;;;13.30;99.90;;;;;;5041210;28;20430;-82
2022/10/10 00:45:47;;;;;;;13.57;10.30;;;13.30;99.90;;;;;;5055368;28;20444;-83
2022/10/10 00:48:16;;;;;;;12.57;10.97;;;13.30;99.90;;;;;;5034270;28;20450;-83
2022/10/10 00:50:48;;;;;;;14.57;10.17;;;13.30;99.90;;;;;;5034000;28;20451;-83
2022/10/10 00:53:18;;;;;;;9.90;8.87;;;13.30;99.90;;;;;;5040931;28;20497;-82
2022/10/10 00:55:46;;;;;;;10.73;9.33;;;13.30;99.90;;;;;;5055827;28;20470;-82
2022/10/10 00:58:16;;;;;;;11.53;10.30;;;13.30;99.90;;;;;;5040725;28;20816;-83
2022/10/10 01:00:43;;;;;;;13.33;9.90;;;13.30;99.90;;;;;;5039492;28;20449;-83
2022/10/10 01:03:09;;;;;;;12.40;9.53;;;13.30;99.90;;;;;;5038473;28;20437;-83
2022/10/10 01:05:37;;;;;;;12.17;10.30;;;13.20;99.90;;;;;;5039215;28;20456;-82
2022/10/10 01:08:06;;;;;;;13.93;9.93;;;13.30;99.90;;;;;;5039738;28;20457;-83
2022/10/10 01:10:38;;;;;;;12.50;9.60;;;13.20;99.90;;;;;;5039983;28;20452;-83
2022/10/10 01:13:15;;;;;;;10.83;9.10;;;13.20;99.90;;;;;;5041800;28;20442;-82
2022/10/10 01:15:50;;;;;;;10.37;9.13;;;13.20;99.90;;;;;;5046691;28;20476;-83
2022/10/10 01:18:25;;;;;;;9.97;8.70;;;13.30;99.90;;;;;;5043374;28;20437;-83
2022/10/10 01:21:03;;;;;;;9.43;8.43;;;13.30;99.90;;;;;;5047316;28;20445;-82
2022/10/10 01:23:55;;;;;;;11.27;9.50;;;13.30;99.90;;;;;;5051423;28;20440;-82
2022/10/10 01:27:00;;;;;;;11.10;9.57;;;13.30;99.90;;;;;;5052606;28;20480;-82
2022/10/10 01:29:31;;;;;;;11.97;8.40;;;13.30;99.90;;;;;;5037492;28;20950;-83
2022/10/10 01:32:11;;;;;;;13.03;10.33;;;13.30;99.90;;;;;;5037774;28;20961;-83
2022/10/10 01:34:45;;;;;;;12.50;9.73;;;13.30;99.90;;;;;;5041446;28;20465;-82
2022/10/10 01:37:17;;;;;;;12.50;9.87;;;13.30;99.90;;;;;;5049598;28;20484;-83
2022/10/10 01:39:53;;;;;;;14.10;10.03;;;13.30;99.90;;;;;;5041589;28;20433;-83
2022/10/10 01:42:25;;;;;;;12.17;10.67;;;13.30;99.90;;;;;;5044714;28;20452;-83
2022/10/10 01:44:53;;;;;;;14.70;10.27;;;13.30;99.90;;;;;;5054589;28;20436;-83
2022/10/10 01:47:21;;;;;;;11.97;10.77;;;13.30;99.90;;;;;;5057548;28;20465;-82
2022/10/10 01:49:51;;;;;;;12.13;9.90;;;13.30;99.90;;;;;;5050528;28;20934;-83
2022/10/10 01:52:27;;;;;;;10.90;8.97;;;13.30;99.90;;;;;;5043441;28;20517;-82
2022/10/10 01:55:05;;;;;;;11.07;9.60;;;13.30;99.90;;;;;;5042972;28;20456;-83
2022/10/10 01:57:44;;;;;;;12.43;10.70;;;13.30;99.90;;;;;;5041438;28;20481;-83
2022/10/10 02:00:17;;;;;;;12.07;10.03;;;13.30;99.90;;;;;;5041598;28;20940;-82
2022/10/10 02:02:53;;;;;;;14.13;11.20;;;13.30;99.90;;;;;;5038574;28;20445;-83
2022/10/10 02:05:27;;;;;;;13.47;10.70;;;13.30;99.90;;;;;;5040772;28;20914;-83
2022/10/10 02:07:57;;;;;;;11.73;10.53;;;13.20;99.90;;;;;;5039154;28;20479;-83
2022/10/10 02:10:28;;;;;;;13.20;10.50;;;13.30;99.90;;;;;;5042394;28;20454;-83
2022/10/10 02:12:57;;;;;;;13.57;10.80;;;13.30;99.90;;;;;;5046070;28;20446;-83
2022/10/10 02:15:28;;;;;;;13.60;10.87;;;13.20;99.90;;;;;;5042050;28;20430;-83
2022/10/10 02:17:57;;;;;;;14.87;10.60;;;13.30;99.90;;;;;;5044442;28;20497;-83
2022/10/10 02:20:27;;;;;;;12.07;10.57;;;13.30;99.90;;;;;;5042878;28;20454;-83
2022/10/10 02:22:55;;;;;;;15.40;11.57;;;13.30;99.90;;;;;;5042256;28;20790;-83
2022/10/10 02:25:27;;;;;;;14.40;10.90;;;13.20;99.90;;;;;;5039661;28;20445;-83
2022/10/10 02:28:04;;;;;;;12.23;10.37;;;13.20;99.90;;;;;;5040706;28;20465;-83
2022/10/10 02:30:34;;;;;;;12.20;10.90;;;13.30;99.90;;;;;;5041151;28;20451;-83
2022/10/10 02:33:04;;;;;;;15.70;10.93;;;13.30;99.90;;;;;;5040761;28;20461;-83
2022/10/10 02:35:33;;;;;;;14.20;10.60;;;13.20;99.90;;;;;;5040326;28;20450;-83
2022/10/10 02:38:02;;;;;;;15.60;11.00;;;13.20;99.90;;;;;;5039100;28;20460;-84
2022/10/10 02:40:32;;;;;;;16.20;10.97;;;13.30;99.90;;;;;;5039538;28;20456;-83
2022/10/10 02:43:02;;;;;;;17.37;12.00;;;13.30;99.90;;;;;;5041589;28;20469;-81
2022/10/10 02:45:31;;;;;;;14.67;10.97;;;13.20;99.90;;;;;;5054753;28;20468;-82
2022/10/10 02:48:00;;;;;;;15.27;11.30;;;13.20;99.90;;;;;;5042111;28;20492;-81
2022/10/10 02:50:28;;;;;;;16.47;11.13;;;13.20;99.90;;;;;;5058942;28;20569;-82
2022/10/10 02:52:55;;;;;;;14.23;11.13;;;13.20;99.90;;;;;;5049032;28;20442;-83
2022/10/10 02:55:22;;;;;;;13.50;12.10;;;13.20;99.90;;;;;;5042971;28;20445;-83
2022/10/10 02:57:49;;;;;;;14.10;11.10;;;13.20;99.90;;;;;;5041200;28;20489;-83
2022/10/10 03:00:16;;;;;;;13.90;11.90;;;13.10;99.90;;;;;;5037469;28;20446;-83
2022/10/10 03:02:42;;;;;;;15.73;12.87;;;13.20;99.90;;;;;;5039866;28;20449;-84
2022/10/10 03:05:10;;;;;;;15.17;10.60;;;13.20;99.90;;;;;;5041185;28;20438;-83
2022/10/10 03:07:37;;;;;;;14.10;11.90;;;13.10;99.90;;;;;;5039077;28;20469;-83
2022/10/10 03:10:06;;;;;;;14.97;12.13;;;13.10;99.90;;;;;;5037591;28;20452;-83
2022/10/10 03:12:33;;;;;;;22.50;11.83;;;13.10;99.90;;;;;;5041032;28;20450;-83
2022/10/10 03:14:59;;;;;;;15.90;11.50;;;13.10;99.90;;;;;;5041852;28;20445;-83
2022/10/10 03:17:26;;;;;;;15.17;11.17;;;13.00;99.90;;;;;;5041228;28;20485;-84
2022/10/10 03:19:53;;;;;;;13.37;11.67;;;13.00;99.90;;;;;;5041815;28;21043;-84
2022/10/10 03:22:21;;;;;;;14.27;12.27;;;13.00;99.90;;;;;;5042881;28;20456;-82
2022/10/10 03:24:48;;;;;;;12.80;11.10;;;13.00;99.90;;;;;;5039126;28;20464;-84
2022/10/10 03:27:15;;;;;;;15.90;12.07;;;13.00;99.90;;;;;;5021509;28;20468;-83
2022/10/10 03:29:41;;;;;;;14.93;11.97;;;13.00;99.90;;;;;;5044160;28;20449;-84
2022/10/10 03:32:08;;;;;;;18.10;11.30;;;13.00;99.90;;;;;;5044588;28;20977;-82
2022/10/10 03:34:35;;;;;;;14.63;11.80;;;12.90;99.90;;;;;;5055354;28;20432;-83
2022/10/10 03:37:01;;;;;;;13.43;12.00;;;13.00;99.90;;;;;;5055548;28;20520;-82
2022/10/10 03:39:30;;;;;;;22.23;12.20;;;12.90;99.90;;;;;;5050006;28;20442;-82
2022/10/10 03:41:56;;;;;;;11.90;10.70;;;13.00;99.90;;;;;;5049583;28;20446;-83
2022/10/10 03:44:23;;;;;;;14.23;10.87;;;13.00;99.90;;;;;;5042394;28;20476;-84
2022/10/10 03:46:50;;;;;;;15.40;11.17;;;13.00;99.90;;;;;;5038174;28;20472;-80
2022/10/10 03:49:17;;;;;;;12.93;11.47;;;13.00;99.90;;;;;;5034220;28;20460;-81
2022/10/10 03:51:43;;;;;;;12.90;11.50;;;12.90;99.90;;;;;;5036807;28;20438;-82
2022/10/10 03:54:10;;;;;;;12.17;10.30;;;12.90;99.90;;;;;;5050210;28;20445;-82
2022/10/10 03:56:38;;;;;;;13.00;11.43;;;12.90;99.90;;;;;;5038099;28;20503;-82
2022/10/10 03:59:05;;;;;;;12.93;10.13;;;12.90;99.90;;;;;;5040028;28;20453;-82
2022/10/10 04:01:32;;;;;;;15.10;11.37;;;12.90;99.90;;;;;;5042130;28;20446;-82
2022/10/10 04:03:59;;;;;;;16.33;11.83;;;12.90;99.90;;;;;;5045082;28;20446;-82
2022/10/10 04:06:26;;;;;;;13.93;11.13;;;12.90;99.90;;;;;;5043751;28;20458;-82
2022/10/10 04:08:53;;;;;;;15.00;11.77;;;12.90;99.90;;;;;;5043098;28;20473;-82
2022/10/10 04:11:20;;;;;;;14.83;11.87;;;12.90;99.90;;;;;;5039043;28;20458;-82
2022/10/10 04:13:48;;;;;;;14.23;11.30;;;12.90;99.90;;;;;;5037687;28;20441;-82
2022/10/10 04:16:14;;;;;;;12.27;11.00;;;12.90;99.90;;;;;;5050350;23;20856;-87
2022/10/10 04:18:41;;;;;;;15.40;11.13;;;12.90;99.90;;;;;;5031139;28;20477;-87
2022/10/10 04:21:12;;;;;;;14.10;11.70;;;12.90;99.90;;;;;;5035941;28;20433;-86
2022/10/10 04:23:39;;;;;;;13.67;11.33;;;12.90;99.90;;;;;;5057380;28;20468;-87
2022/10/10 04:26:06;;;;;;;14.87;13.03;;;13.00;99.90;;;;;;5038893;28;20450;-87
2022/10/10 04:28:33;;;;;;;14.40;11.33;;;13.00;99.90;;;;;;5033608;28;20476;-86
2022/10/10 04:31:01;;;;;;;18.90;12.27;;;12.90;99.90;;;;;;5033874;28;20457;-86
2022/10/10 04:33:27;;;;;;;14.37;12.77;;;12.90;99.90;;;;;;5035331;28;20457;-85
2022/10/10 04:35:54;;;;;;;13.43;12.10;;;12.90;99.90;;;;;;5037282;28;20441;-86
2022/10/10 04:38:21;;;;;;;16.57;11.10;;;12.90;99.90;;;;;;5032987;28;20489;-85
2022/10/10 04:40:48;;;;;;;17.40;12.30;;;12.90;99.90;;;;;;5038751;28;20449;-87
2022/10/10 04:43:15;;;;;;;18.23;12.50;;;12.90;99.90;;;;;;5053822;28;20456;-87
2022/10/10 04:45:42;;;;;;;21.10;13.10;;;12.90;99.90;;;;;;5053662;28;20453;-86
2022/10/10 04:48:10;;;;;;;16.07;11.80;;;12.80;99.90;;;;;;5043677;28;20545;-87
2022/10/10 04:50:37;;;;;;;14.73;10.70;;;12.80;99.90;;;;;;5038768;28;20441;-86
2022/10/10 04:53:04;;;;;;;18.57;11.90;;;12.70;99.90;;;;;;5034953;28;20506;-86
2022/10/10 04:55:30;;;;;;;16.80;13.07;;;12.70;99.90;;;;;;5034488;28;20548;-86
2022/10/10 04:57:57;;;;;;;17.80;12.33;;;12.70;99.90;;;;;;5047022;28;20497;-86
2022/10/10 05:00:24;;;;;;;15.70;12.07;;;12.70;99.90;;;;;;5054331;28;20446;-87
2022/10/10 05:02:50;;;;;;;24.13;11.53;;;12.60;99.90;;;;;;5053898;28;20463;-86
2022/10/10 05:05:18;;;;;;;18.23;13.50;;;12.60;99.90;;;;;;5042879;28;20447;-86
2022/10/10 05:07:45;;;;;;;21.27;11.90;;;12.60;99.90;;;;;;5033551;28;20473;-86
2022/10/10 05:10:12;;;;;;;14.43;11.70;;;12.60;99.90;;;;;;5033793;28;20942;-86
2022/10/10 05:12:39;;;;;;;23.53;14.77;;;12.60;99.90;;;;;;5033068;28;20912;-86
2022/10/10 05:15:06;;;;;;;15.23;12.43;;;12.60;99.90;;;;;;5033439;28;20461;-86
2022/10/10 05:17:33;;;;;;;16.63;12.60;;;12.60;99.90;;;;;;5033491;28;21008;-87
2022/10/10 05:20:00;;;;;;;16.53;12.20;;;12.60;99.90;;;;;;5034951;28;20446;-87
2022/10/10 05:22:28;;;;;;;15.40;13.80;;;12.60;99.90;;;;;;5045278;28;20555;-86
2022/10/10 05:24:54;;;;;;;15.97;13.63;;;12.60;99.90;;;;;;5056585;28;20448;-87
2022/10/10 05:27:21;;;;;;;23.53;13.47;;;12.60;99.90;;;;;;5055886;28;20469;-87
2022/10/10 05:29:48;;;;;;;18.63;13.73;;;12.60;99.90;;;;;;5041154;28;20837;-86
2022/10/10 05:32:15;;;;;;;19.07;14.10;;;12.60;99.90;;;;;;5034422;28;20461;-86
2022/10/10 05:34:41;;;;;;;21.27;13.10;;;12.60;99.90;;;;;;5047839;28;20517;-87
2022/10/10 05:37:08;;;;;;;18.00;14.83;;;12.50;99.90;;;;;;5040148;28;20547;-87
2022/10/10 05:39:36;;;;;;;20.97;14.63;;;12.60;99.90;;;;;;5041914;28;20826;-87
2022/10/10 05:42:03;;;;;;;20.23;14.03;;;12.60;99.90;;;;;;5033590;28;20817;-87
2022/10/10 05:44:30;;;;;;;18.40;13.57;;;12.60;99.90;;;;;;5033415;28;20445;-87
2022/10/10 05:46:57;;;;;;;15.43;13.83;;;12.60;99.90;;;;;;5035824;28;20461;-87
2022/10/10 05:49:24;;;;;;;21.83;14.90;;;12.60;99.90;;;;;;5033684;28;20441;-87
2022/10/10 05:51:50;;;;;;;16.90;13.23;;;12.60;99.90;;;;;;5034562;28;20453;-87
2022/10/10 05:54:17;;;;;;;17.20;13.53;;;12.70;99.90;;;;;;5056138;28;20424;-87
2022/10/10 05:56:45;;;;;;;19.23;13.80;;;12.70;99.90;;;;;;5052745;28;20465;-87
2022/10/10 05:59:12;;;;;;;20.80;15.23;;;12.70;99.90;;;;;;5036819;28;20456;-87
2022/10/10 06:01:39;;;;;;;20.67;15.90;;;12.80;99.90;;;;;;5036575;28;20829;-87
2022/10/10 06:04:06;;;;;;;21.63;14.73;;;12.80;99.90;;;;;;5036337;28;20452;-87
2022/10/10 06:06:32;;;;;;;18.87;14.93;;;12.90;99.90;;;;;;5036523;28;20472;-86
2022/10/10 06:08:59;;;;;;;22.07;14.97;;;13.00;99.90;;;;;;5035790;28;20456;-87
2022/10/10 06:11:32;;;;;;;22.27;14.93;;;13.10;99.90;;;;;;5038957;28;20441;-87
2022/10/10 06:14:00;;;;;;;21.33;13.93;;;13.10;99.90;;;;;;5054698;28;20438;-87
2022/10/10 06:16:27;;;;;;;15.60;12.90;;;13.10;99.90;;;;;;5052486;28;20538;-87
2022/10/10 06:18:55;;;;;;;20.37;13.03;;;13.10;99.90;;;;;;5039336;28;20836;-87
2022/10/10 06:21:23;;;;;;;15.70;12.83;;;13.10;99.90;;;;;;5037300;28;20449;-87
2022/10/10 06:23:50;;;;;;;16.83;13.23;;;13.10;99.90;;;;;;5039737;28;20537;-87
2022/10/10 06:26:18;;;;;;;16.90;13.40;;;13.20;99.90;;;;;;5045883;28;20457;-92
2022/10/10 06:28:45;;;;;;;21.00;13.70;;;13.30;99.90;;;;;;5045557;28;20475;-84
2022/10/10 06:31:14;;;;;;;16.03;14.30;;;13.40;99.90;;;;;;5044702;28;20441;-85
2022/10/10 06:33:44;;;;;;;16.27;13.23;;;13.50;99.90;;;;;;5045135;28;20917;-86
2022/10/10 06:36:11;;;;;;;18.87;14.10;;;13.60;99.90;;;;;;5046363;28;20484;-85
2022/10/10 06:38:40;;;;;;;16.07;14.37;;;13.70;99.90;;;;;;5046127;28;20485;-84
2022/10/10 06:41:07;;;;;;;20.80;14.40;;;13.80;99.90;;;;;;5048080;28;20447;-85
2022/10/10 06:43:35;;;;;;;19.30;13.17;;;14.00;99.90;;;;;;5051423;28;20536;-83
2022/10/10 06:46:02;;;;;;;21.40;13.50;;;14.00;99.90;;;;;;5055240;28;20471;-83
2022/10/10 06:48:33;;;;;;;16.73;12.87;;;14.00;99.90;;;;;;5051746;28;20459;-85
2022/10/10 06:51:02;;;;;;;17.67;13.27;;;14.10;99.90;;;;;;5049820;28;20437;-85
2022/10/10 06:53:29;;;;;;;16.27;14.30;;;14.10;99.90;;;;;;5047852;28;20460;-84
2022/10/10 06:55:56;;;;;;;16.00;13.77;;;14.10;99.90;;;;;;5040393;28;20910;-85
2022/10/10 06:58:25;;;;;;;20.63;13.10;;;14.00;99.90;;;;;;5036841;28;20488;-85
2022/10/10 07:00:52;;;;;;;17.27;14.57;;;13.90;99.90;;;;;;5035554;28;20434;-85
2022/10/10 07:03:20;;;;;;;21.33;14.90;;;13.90;99.90;;;;;;5036251;28;20450;-86
2022/10/10 07:05:51;;;;;;;14.07;11.90;;;13.90;99.90;;;;;;5038244;28;20438;-86
2022/10/10 07:08:18;;;;;;;21.03;12.80;;;14.00;99.90;;;;;;5042716;28;20462;-86
2022/10/10 07:10:46;;;;;;;17.27;13.37;;;14.10;99.90;;;;;;5054407;28;20473;-87
2022/10/10 07:13:13;;;;;;;15.93;12.47;;;14.20;99.90;;;;;;5051033;28;20476;-87
2022/10/10 07:15:39;;;;;;;16.43;12.93;;;14.30;99.90;;;;;;5037200;28;20446;-86
2022/10/10 07:18:07;;;;;;;21.53;13.83;;;14.40;99.90;;;;;;5035266;28;20493;-86
2022/10/10 07:20:34;;;;;;;15.33;13.50;;;14.50;99.90;;;;;;5036536;28;20449;-86
2022/10/10 07:23:02;;;;;;;20.97;14.00;;;14.50;99.90;;;;;;5035027;28;20486;-86
2022/10/10 07:25:29;;;;;;;14.53;13.13;;;14.60;99.90;;;;;;5034712;28;20453;-86
2022/10/10 07:27:56;;;;;;;15.50;13.30;;;14.70;99.90;;;;;;5033081;28;20862;-86
2022/10/10 07:30:23;;;;;;;15.40;13.77;;;14.80;99.90;;;;;;5034513;28;20532;-86
2022/10/10 07:32:50;;;;;;;16.73;13.73;;;14.80;99.90;;;;;;5036486;28;20452;-86
2022/10/10 07:35:17;;;;;;;16.37;13.40;;;15.10;99.90;;;;;;5054958;28;20452;-86
2022/10/10 07:37:43;;;;;;;17.90;13.37;;;15.10;99.90;;;;;;5053568;28;20488;-86
2022/10/10 07:40:12;;;;;;;16.13;11.63;;;15.20;99.90;;;;;;5046307;28;20950;-86
2022/10/10 07:42:39;;;;;;;20.43;12.20;;;15.30;99.90;;;;;;5034160;28;20938;-86
2022/10/10 07:45:08;;;;;;;19.47;11.33;;;15.30;99.90;;;;;;5034890;28;20430;-86
2022/10/10 07:47:35;;;;;;;16.10;11.43;;;15.50;99.90;;;;;;5037217;28;20491;-86
2022/10/10 07:50:06;;;;;;;12.67;10.63;;;15.50;99.90;;;;;;5052973;28;20430;-85
2022/10/10 07:52:33;;;;;;;12.60;11.40;;;15.50;99.90;;;;;;5057934;28;20426;-86
2022/10/10 07:55:00;;;;;;;16.83;11.40;;;15.50;99.90;;;;;;5050440;28;20472;-86
2022/10/10 07:57:33;;;;;;;12.43;9.77;;;15.60;99.90;;;;;;5035450;28;20462;-86
2022/10/10 08:00:00;;;;;;;15.07;10.17;;;15.60;99.90;;;;;;5034524;28;20540;-86
2022/10/10 08:02:27;;;;;;;14.97;11.50;;;15.80;99.90;;;;;;5053992;28;20453;-86
2022/10/10 08:04:53;;;;;;;14.67;11.13;;;15.90;99.90;;;;;;5045754;28;20460;-86
2022/10/10 08:07:20;;;;;;;15.50;10.63;;;16.00;99.90;;;;;;5034173;28;20469;-86
2022/10/10 08:09:47;;;;;;;16.73;9.03;;;16.10;99.90;;;;;;5035878;28;20450;-86
2022/10/10 08:12:14;;;;;;;21.50;10.90;;;16.10;99.90;;;;;;5037881;28;20461;-86
2022/10/10 08:14:42;;;;;;;15.77;10.77;;;16.20;99.90;;;;;;5034347;28;20534;-86
2022/10/10 08:17:08;;;;;;;13.93;10.30;;;16.20;99.90;;;;;;5033959;28;20478;-85
2022/10/10 08:19:35;;;;;;;13.33;11.00;;;16.20;99.90;;;;;;5033647;28;20515;-85
2022/10/10 08:22:02;;;;;;;11.83;9.20;;;16.40;99.90;;;;;;5033399;28;20905;-84
2022/10/10 08:24:29;;;;;;;17.10;11.33;;;16.40;99.90;;;;;;5033626;28;20450;-84
2022/10/10 08:26:56;;;;;;;14.37;9.70;;;16.50;99.90;;;;;;5032218;28;20470;-85
2022/10/10 08:29:23;;;;;;;14.00;9.33;;;16.60;99.90;;;;;;5033641;28;20944;-85
2022/10/10 08:31:51;;;;;;;13.83;10.20;;;16.60;99.90;;;;;;5032973;28;20512;-85
2022/10/10 08:34:18;;;;;;;13.43;10.10;;;16.60;99.90;;;;;;5033650;28;20453;-85
2022/10/10 08:36:45;;;;;;;12.30;10.40;;;16.60;99.90;;;;;;5034457;28;20481;-85
2022/10/10 08:39:12;;;;;;;12.07;10.07;;;16.70;99.90;;;;;;5034865;28;20544;-85
2022/10/10 08:41:42;;;;;;;12.60;9.40;;;16.70;99.90;;;;;;5035319;28;20442;-82
2022/10/10 08:44:16;;;;;;;16.67;10.20;;;16.70;99.90;;;;;;5046013;28;20458;-84
2022/10/10 08:46:48;;;;;;;12.50;8.93;;;17.00;99.90;;;;;;5035671;28;20469;-85
2022/10/10 08:49:22;;;;;;;10.70;9.60;;;17.10;99.90;;;;;;5033429;28;20441;-84
2022/10/10 08:51:58;;;;;;;11.37;9.03;;;17.30;99.90;;;;;;5032827;28;20445;-84
2022/10/10 08:54:26;;;;;;;11.17;7.57;;;17.50;99.90;;;;;;5024191;28;20533;-84
2022/10/10 08:56:56;;;;;;;14.67;9.23;;;17.90;99.90;;;;;;5031774;28;20973;-85
2022/10/10 08:59:26;;;;;;;12.57;9.23;;;18.40;99.90;;;;;;5038473;28;20477;-85
2022/10/10 09:02:04;;;;;;;13.20;10.17;;;18.60;99.90;;;;;;5052648;28;20429;-85
2022/10/10 09:04:32;;;;;;;14.60;9.77;;;18.70;99.90;;;;;;5039253;28;20442;-82
2022/10/10 09:07:17;;;;;;;11.90;8.70;;;18.90;99.90;;;;;;5035331;28;20473;-84
2022/10/10 09:09:54;;;;;;;11.90;9.70;;;19.10;99.90;;;;;;5020457;28;20447;-83
2022/10/10 09:12:28;;;;;;;13.47;9.20;;;19.10;99.90;;;;;;5027914;28;20445;-83
2022/10/10 09:15:02;;;;;;;12.07;9.00;;;19.00;99.90;;;;;;5033198;28;20510;-85
2022/10/10 09:17:38;;;;;;;8.90;7.97;;;19.00;99.90;;;;;;5032234;28;20477;-83
2022/10/10 09:20:18;;;;;;;10.30;8.73;;;19.00;99.90;;;;;;5036490;28;20437;-82
2022/10/10 09:22:51;;;;;;;14.10;8.80;;;19.00;99.90;;;;;;5044947;28;20449;-85
2022/10/10 09:25:22;;;;;;;16.97;10.47;;;19.20;99.90;;;;;;5045533;28;20449;-84
2022/10/10 09:27:57;;;;;;;18.30;11.67;;;19.40;99.90;;;;;;5027691;28;20454;-85
2022/10/10 09:30:24;;;;;;;10.50;8.70;;;19.80;99.90;;;;;;5026265;28;20441;-84
2022/10/10 09:32:55;;;;;;;11.37;8.90;;;20.10;99.90;;;;;;5022796;28;20442;-83
2022/10/10 09:35:26;;;;;;;14.20;9.10;;;20.30;99.90;;;;;;5033929;28;20441;-83
2022/10/10 09:37:57;;;;;;;12.17;9.83;;;20.60;99.90;;;;;;5029995;28;20817;-83
2022/10/10 09:40:28;;;;;;;13.00;7.47;;;20.80;99.90;;;;;;5028770;28;20536;-83
2022/10/10 09:42:56;;;;;;;14.10;8.30;;;20.80;99.90;;;;;;5031270;28;20448;-83
2022/10/10 09:45:30;;;;;;;16.53;8.17;;;20.70;99.90;;;;;;5029683;28;20442;-84
2022/10/10 09:47:56;;;;;;;12.90;7.87;;;20.80;99.90;;;;;;5027907;28;20467;-84
2022/10/10 09:50:25;;;;;;;14.43;8.90;;;20.90;99.90;;;;;;5039814;28;20442;-83
2022/10/10 09:52:52;;;;;;;9.00;8.03;;;21.90;99.90;;;;;;5022760;28;20448;-83
2022/10/10 09:55:25;;;;;;;16.00;9.37;;;24.00;98.40;;;;;;5023062;28;20450;-83
2022/10/10 09:57:53;;;;;;;12.77;7.90;;;23.70;94.40;;;;;;5020027;28;20558;-83
2022/10/10 10:00:28;;;;;;;9.13;8.10;;;23.40;95.60;;;;;;5024219;28;20437;-83
2022/10/10 10:03:06;;;;;;;14.10;8.03;;;23.60;94.60;;;;;;5040050;28;20472;-83
2022/10/10 10:05:34;;;;;;;9.77;6.73;;;23.00;94.70;;;;;;5036292;28;20456;-83
2022/10/10 10:08:01;;;;;;;8.60;7.20;;;22.80;95.60;;;;;;5035502;28;20473;-83
2022/10/10 10:10:29;;;;;;;12.27;7.80;;;22.90;95.70;;;;;;5035019;28;20468;-83
2022/10/10 10:12:57;;;;;;;13.40;8.90;;;22.70;96.10;;;;;;5035159;28;20943;-82
2022/10/10 10:15:25;;;;;;;10.87;7.30;;;22.10;96.90;;;;;;5028717;28;20442;-84
2022/10/10 10:18:10;;;;;;;11.10;7.90;;;21.90;98.00;;;;;;5010481;22;20508;-81
2022/10/10 10:20:40;;;;;;;9.70;8.40;;;22.10;98.30;;;;;;4976392;28;20442;-82
2022/10/10 10:23:23;;;;;;;15.43;8.83;;;22.10;97.90;;;;;;4975756;28;20436;-83
2022/10/10 10:25:57;;;;;;;10.07;8.10;;;22.30;98.00;;;;;;4975780;28;20451;-82
2022/10/10 10:28:24;;;;;;;11.83;8.70;;;22.90;97.50;;;;;;4976683;28;20539;-82
2022/10/10 10:30:54;;;;;;;11.93;8.17;;;24.00;96.40;;;;;;4975687;28;20453;-82
2022/10/10 10:33:39;;;;;;;11.20;7.37;;;25.20;93.60;;;;;;4976495;28;20905;-82
2022/10/10 10:36:19;;;;;;;9.43;7.30;;;26.30;91.40;;;;;;4980945;28;20454;-82
2022/10/10 10:38:50;;;;;;;11.53;7.00;;;26.50;90.40;;;;;;4977369;28;20999;-82
2022/10/10 10:41:24;;;;;;;10.10;7.50;;;26.80;89.30;;;;;;4979016;28;20783;-82
2022/10/10 10:44:11;;;;;;;13.10;6.70;;;26.60;88.10;;;;;;4975125;28;20437;-82
2022/10/10 10:46:46;;;;;;;10.37;6.37;;;26.50;88.10;;;;;;4980080;28;20460;-80
2022/10/10 10:49:16;;;;;;;9.00;6.50;;;26.50;87.30;;;;;;4975319;28;20484;-80
2022/10/10 10:52:07;;;;;;;7.87;6.63;;;26.10;88.80;;;;;;4978142;28;20435;-82
2022/10/10 10:54:45;;;;;;;5.63;5.00;;;25.80;89.20;;;;;;4964499;29;20471;-83
2022/10/10 10:57:17;;;;;;;8.57;6.13;;;25.10;90.40;;;;;;4973714;28;20440;-82
2022/10/10 10:59:55;;;;;;;10.50;6.57;;;24.70;91.30;;;;;;4969666;28;20543;-83
2022/10/10 11:02:36;;;;;;;9.20;6.50;;;24.30;92.00;;;;;;4976980;28;20431;-82
2022/10/10 11:05:29;;;;;;;11.87;7.30;;;23.90;92.70;;;;;;4988294;28;20434;-82
2022/10/10 11:08:12;;;;;;;6.80;5.53;;;23.80;93.00;;;;;;4990175;28;20465;-83
2022/10/10 11:10:46;;;;;;;8.87;5.30;;;24.50;93.00;;;;;;4983374;28;20450;-82
2022/10/10 11:13:23;;;;;;;9.23;6.00;;;26.20;90.40;;;;;;4982543;28;20455;-84
2022/10/10 11:15:53;;;;;;;6.97;6.20;;;28.00;86.40;;;;;;4983924;28;20504;-83
2022/10/10 11:25:33;;;;;;;10.40;4.83;;;30.10;73.80;;;;;;4937193;29;20442;-89
2022/10/10 12:04:42;;;;;;;7.83;4.70;;;33.00;56.20;;;;;;5033893;28;20853;-88
2022/10/10 12:20:34;;;;;;;5.73;4.27;;;33.20;56.80;;;;;;5107095;22;20524;-87
2022/10/10 12:35:56;;;;;;;8.60;5.17;;;29.30;61.50;;;;;;4980806;28;20926;-88
2022/10/10 12:55:25;;;;;;;8.33;3.93;;;26.00;71.20;;;;;;5010970;28;20426;-87
2022/10/10 13:00:52;;;;;;;10.97;4.43;;;25.40;73.00;;;;;;5025523;28;20476;-87
2022/10/10 13:03:49;;;;;;;13.17;4.20;;;25.40;74.00;;;;;;5072464;28;20468;-88
2022/10/10 13:16:45;;;;;;;8.57;4.47;;;25.90;71.40;;;;;;4889331;22;20424;-87
2022/10/10 13:29:33;;;;;;;6.93;4.70;;;24.50;76.80;;;;;;4941224;29;20590;-87
2022/10/10 13:32:19;;;;;;;6.80;4.60;;;24.10;77.90;;;;;;4961572;28;20461;-86
2022/10/10 13:34:56;;;;;;;10.43;4.23;;;24.10;78.50;;;;;;5017806;28;20494;-87
2022/10/10 13:37:26;;;;;;;5.33;4.00;;;24.00;78.70;;;;;;5018040;28;20491;-88
2022/10/10 13:40:06;;;;;;;5.90;4.10;;;24.40;78.40;;;;;;5018554;28;20506;-87
2022/10/10 13:43:35;;;;;;;9.93;4.60;;;24.80;77.40;;;;;;5027394;28;20462;-87
2022/10/10 13:46:03;;;;;;;5.70;4.53;;;25.60;75.00;;;;;;5042657;28;20455;-80
2022/10/10 13:48:41;;;;;;;9.20;4.93;;;25.60;74.80;;;;;;5041228;28;20479;-81
2022/10/10 13:51:09;;;;;;;8.57;4.23;;;25.40;74.90;;;;;;5042305;28;20801;-80
2022/10/10 13:53:45;;;;;;;10.97;4.67;;;25.30;75.90;;;;;;5043020;28;20487;-80
2022/10/10 13:56:14;;;;;;;10.10;3.90;;;25.20;75.70;;;;;;5043968;28;20440;-80
2022/10/10 13:58:44;;;;;;;9.50;4.67;;;25.40;75.20;;;;;;5045653;28;20487;-81
2022/10/10 14:01:21;;;;;;;7.27;3.70;;;25.40;74.20;;;;;;5042091;28;20448;-81
2022/10/10 14:03:51;;;;;;;6.50;4.27;;;24.90;74.30;;;;;;5037619;28;20459;-81
2022/10/10 14:06:19;;;;;;;10.67;5.57;;;24.80;76.30;;;;;;5022457;28;20796;-80
2022/10/10 14:08:47;;;;;;;8.40;3.77;;;24.90;76.60;;;;;;5020511;28;20472;-80
2022/10/10 14:11:18;;;;;;;11.53;5.20;;;25.40;75.30;;;;;;5037177;28;20446;-81
2022/10/10 14:13:49;;;;;;;10.97;4.53;;;26.00;71.80;;;;;;5041181;28;20461;-80
2022/10/10 14:16:24;;;;;;;11.00;5.17;;;26.30;69.60;;;;;;5042009;28;20446;-81
2022/10/10 14:18:52;;;;;;;10.03;4.70;;;26.30;70.20;;;;;;5046435;28;20473;-80
2022/10/10 14:21:20;;;;;;;5.80;3.90;;;25.90;70.50;;;;;;5044790;28;20461;-80
2022/10/10 14:23:46;;;;;;;12.03;4.17;;;25.60;72.00;;;;;;5047889;28;20453;-80
2022/10/10 14:26:16;;;;;;;12.67;4.90;;;25.30;72.80;;;;;;5043551;28;20445;-85
2022/10/10 14:28:44;;;;;;;14.13;4.93;;;25.20;73.60;;;;;;5040327;28;20461;-80
2022/10/10 14:31:11;;;;;;;10.83;3.80;;;25.20;74.50;;;;;;5041004;28;20490;-80
2022/10/10 14:33:38;;;;;;;11.00;5.10;;;25.10;75.00;;;;;;5040309;28;20963;-81
2022/10/10 14:36:07;;;;;;;12.37;5.80;;;25.20;75.00;;;;;;5041784;28;20456;-81
2022/10/10 14:38:34;;;;;;;6.50;4.10;;;25.30;73.90;;;;;;5043627;28;20486;-81